createdAt,value
2022-12-04T00:02:08.552Z,91375.09
2022-12-04T00:04:35.069Z,91386.41
2022-12-04T00:07:01.802Z,91390.50
2022-12-04T00:09:28.270Z,91377.91
2022-12-04T00:11:54.813Z,91383.38
2022-12-04T00:14:21.347Z,91387.53
2022-12-04T00:16:47.844Z,91381.84
2022-12-04T00:19:14.368Z,91376.25
2022-12-04T00:21:40.815Z,91379.66
2022-12-04T00:24:07.568Z,91375.41
2022-12-04T00:26:34.759Z,91383.06
2022-12-04T00:29:01.520Z,91383.69
2022-12-04T00:31:30.107Z,91385.66
2022-12-04T00:33:57.400Z,91385.66
2022-12-04T00:36:25.946Z,91387.00
2022-12-04T00:38:52.904Z,91382.88
2022-12-04T00:41:23.022Z,91378.63
2022-12-04T00:43:49.590Z,91373.66
2022-12-04T00:46:16.931Z,91389.66
2022-12-04T00:48:43.611Z,91389.66
2022-12-04T00:51:15.930Z,91378.41
2022-12-04T00:53:42.742Z,91377.78
2022-12-04T00:56:12.612Z,91374.16
2022-12-04T00:58:39.547Z,91364.94
2022-12-04T01:01:18.808Z,91366.19
2022-12-04T01:03:46.356Z,91362.78
2022-12-04T01:06:26.958Z,91352.97
2022-12-04T01:08:54.716Z,91351.44
2022-12-04T01:11:23.811Z,91350.06
2022-12-04T01:13:50.845Z,91354.91
2022-12-04T01:16:23.844Z,91361.13
2022-12-04T01:18:51.332Z,91356.06
2022-12-04T01:21:18.489Z,91353.28
2022-12-04T01:23:45.453Z,91356.06
2022-12-04T01:26:12.842Z,91346.34
2022-12-04T01:28:39.308Z,91353.28
2022-12-04T01:31:08.527Z,91352.53
2022-12-04T01:33:36.378Z,91344.69
2022-12-04T01:36:05.581Z,91348.09
2022-12-04T01:38:32.096Z,91352.25
2022-12-04T01:40:58.750Z,91352.25
2022-12-04T01:43:26.595Z,91345.09
2022-12-04T01:45:55.903Z,91341.59
2022-12-04T01:48:39.072Z,91340.84
2022-12-04T01:51:35.701Z,91338.69
2022-12-04T01:54:09.058Z,91340.84
2022-12-04T01:56:44.079Z,91344.91
2022-12-04T01:59:14.276Z,91344.91
2022-12-04T02:01:49.378Z,91340.63
2022-12-04T02:04:15.875Z,91333.63
2022-12-04T02:06:42.332Z,91339.19
2022-12-04T02:09:08.902Z,91336.41
2022-12-04T02:11:46.491Z,91340.44
2022-12-04T02:14:30.447Z,91355.00
2022-12-04T02:17:23.181Z,91347.25
2022-12-04T02:20:09.776Z,91351.41
2022-12-04T02:22:38.990Z,91365.34
2022-12-04T02:25:25.739Z,91361.81
2022-12-04T02:28:02.132Z,91356.88
2022-12-04T02:30:31.827Z,91355.44
2022-12-04T02:33:17.930Z,91369.38
2022-12-04T02:35:55.401Z,91361.50
2022-12-04T02:38:33.173Z,91349.75
2022-12-04T02:41:18.445Z,91358.69
2022-12-04T02:43:49.254Z,91336.38
2022-12-04T02:46:31.039Z,91350.44
2022-12-04T02:49:00.139Z,91342.69
2022-12-04T02:51:30.556Z,91336.38
2022-12-04T02:54:02.809Z,91328.75
2022-12-04T02:56:34.785Z,91334.22
2022-12-04T02:59:17.873Z,91327.19
2022-12-04T03:01:49.793Z,91325.72
2022-12-04T03:04:20.724Z,91322.84
2022-12-04T03:06:56.778Z,91338.34
2022-12-04T03:09:55.098Z,91338.25
2022-12-04T03:12:43.516Z,91344.56
2022-12-04T03:15:23.841Z,91354.88
2022-12-04T03:18:12.758Z,91343.72
2022-12-04T03:20:39.940Z,91346.50
2022-12-04T03:23:14.684Z,91342.28
2022-12-04T03:26:02.485Z,91335.22
2022-12-04T03:28:58.191Z,91346.41
2022-12-04T03:31:45.169Z,91336.69
2022-12-04T03:34:15.661Z,91335.97
2022-12-04T03:36:55.731Z,91340.13
2022-12-04T03:39:29.922Z,91349.81
2022-12-04T03:42:13.560Z,91349.06
2022-12-04T03:44:48.900Z,91357.44
2022-12-04T03:47:20.848Z,91350.53
2022-12-04T03:50:21.468Z,91351.16
2022-12-04T03:52:57.491Z,91351.78
2022-12-04T03:55:30.991Z,91344.72
2022-12-04T03:58:02.668Z,91332.25
2022-12-04T04:00:31.012Z,91343.41
2022-12-04T04:03:03.734Z,91351.66
2022-12-04T04:05:32.475Z,91343.31
2022-12-04T04:08:21.587Z,91333.47
2022-12-04T04:10:51.260Z,91336.16
2022-12-04T04:13:43.118Z,91343.78
2022-12-04T04:16:32.809Z,91351.56
2022-12-04T04:19:19.221Z,91329.25
2022-12-04T04:22:08.671Z,91338.19
2022-12-04T04:24:46.136Z,91331.16
2022-12-04T04:27:13.551Z,91330.44
2022-12-04T04:29:41.658Z,91326.31
2022-12-04T04:32:34.493Z,91316.47
2022-12-04T04:35:09.134Z,91328.38
2022-12-04T04:37:57.840Z,91329.00
2022-12-04T04:40:43.441Z,91337.47
2022-12-04T04:43:15.592Z,91339.66
2022-12-04T04:45:47.484Z,91337.59
2022-12-04T04:48:25.737Z,91336.16
2022-12-04T04:50:53.375Z,91338.94
2022-12-04T04:53:23.044Z,91331.88
2022-12-04T04:55:50.021Z,91348.63
2022-12-04T04:58:19.138Z,91350.69
2022-12-04T05:01:05.272Z,91349.34
2022-12-04T05:03:32.463Z,91351.41
2022-12-04T05:05:59.237Z,91344.50
2022-12-04T05:08:25.812Z,91350.09
2022-12-04T05:10:52.677Z,91349.34
2022-12-04T05:13:20.152Z,91348.63
2022-12-04T05:15:55.884Z,91345.97
2022-12-04T05:18:22.346Z,91345.97
2022-12-04T05:20:48.836Z,91344.50
2022-12-04T05:23:15.312Z,91340.25
2022-12-04T05:25:41.796Z,91343.06
2022-12-04T05:28:08.273Z,91331.16
2022-12-04T05:30:34.807Z,91336.16
2022-12-04T05:33:01.295Z,91329.84
2022-12-04T05:35:27.769Z,91331.88
2022-12-04T05:37:54.237Z,91332.63
2022-12-04T05:40:20.916Z,91336.16
2022-12-04T05:42:47.368Z,91338.94
2022-12-04T05:45:13.850Z,91334.09
2022-12-04T05:47:42.113Z,91329.72
2022-12-04T05:50:10.704Z,91320.72
2022-12-04T05:52:37.384Z,91319.28
2022-12-04T05:55:04.133Z,91317.94
2022-12-04T05:57:30.732Z,91329.09
2022-12-04T05:59:57.508Z,91323.53
2022-12-04T06:02:24.233Z,91320.72
2022-12-04T06:04:50.864Z,91317.84
2022-12-04T06:07:17.312Z,91324.84
2022-12-04T06:09:43.820Z,91330.44
2022-12-04T06:12:10.299Z,91329.72
2022-12-04T06:14:39.820Z,91338.72
2022-12-04T06:17:06.656Z,91340.16
2022-12-04T06:19:33.109Z,91340.16
2022-12-04T06:21:59.583Z,91345.72
2022-12-04T06:24:26.066Z,91345.72
2022-12-04T06:27:26.111Z,91346.47
2022-12-04T06:29:43.759Z,91344.38
2022-12-04T06:32:10.235Z,91345.72
2022-12-04T06:34:37.064Z,91344.19
2022-12-04T06:37:03.711Z,91341.50
2022-12-04T06:39:30.200Z,91344.28
2022-12-04T06:41:56.640Z,91347.09
2022-12-04T06:44:23.118Z,91349.75
2022-12-04T06:46:50.149Z,91340.03
2022-12-04T06:49:16.787Z,91337.25
2022-12-04T06:51:43.275Z,91325.34
2022-12-04T06:54:10.791Z,91321.88
2022-12-04T06:56:37.344Z,91314.19
2022-12-04T06:59:04.580Z,91307.19
2022-12-04T07:01:33.247Z,91301.59
2022-12-04T07:04:01.190Z,91306.44
2022-12-04T07:06:29.468Z,91300.16
2022-12-04T07:09:00.992Z,91305.03
2022-12-04T07:11:27.628Z,91305.03
2022-12-04T07:13:54.899Z,91318.97
2022-12-04T07:16:23.397Z,91313.28
2022-12-04T07:18:50.660Z,91307.69
2022-12-04T07:21:20.051Z,91309.13
2022-12-04T07:23:51.430Z,91309.13
2022-12-04T07:26:18.526Z,91303.56
2022-12-04T07:28:48.124Z,91310.59
2022-12-04T07:31:18.129Z,91303.56
2022-12-04T07:33:45.652Z,91307.69
2022-12-04T07:36:13.685Z,91305.75
2022-12-04T07:38:40.457Z,91303.03
2022-12-04T07:41:08.336Z,91314.81
2022-12-04T07:43:34.884Z,91312.03
2022-12-04T07:46:10.525Z,91303.56
2022-12-04T07:48:37.132Z,91316.06
2022-12-04T07:51:08.635Z,91307.69
2022-12-04T07:53:36.539Z,91306.34
2022-12-04T07:56:04.906Z,91298.72
2022-12-04T07:58:32.123Z,91286.81
2022-12-04T08:01:13.508Z,91277.00
2022-12-04T08:03:47.211Z,91274.97
2022-12-04T08:06:15.482Z,91272.16
2022-12-04T08:08:41.964Z,91260.38
2022-12-04T08:11:10.893Z,91257.50
2022-12-04T08:13:37.351Z,91247.78
2022-12-04T08:16:05.761Z,91247.06
2022-12-04T08:18:32.743Z,91249.75
2022-12-04T08:21:07.441Z,91249.00
2022-12-04T08:23:34.688Z,91246.34
2022-12-04T08:26:02.023Z,91243.53
2022-12-04T08:28:28.886Z,91253.34
2022-12-04T08:30:55.984Z,91241.50
2022-12-04T08:33:22.480Z,91243.53
2022-12-04T08:35:48.915Z,91242.19
2022-12-04T08:38:15.390Z,91240.88
2022-12-04T08:40:41.930Z,91242.19
2022-12-04T08:43:08.391Z,91243.66
2022-12-04T08:45:34.831Z,91245.81
2022-12-04T08:48:01.271Z,91261.13
2022-12-04T08:50:27.815Z,91257.59
2022-12-04T08:52:54.355Z,91260.38
2022-12-04T08:55:20.807Z,91259.78
2022-12-04T08:57:47.288Z,91254.91
2022-12-04T09:00:15.481Z,91260.38
2022-12-04T09:02:42.064Z,91265.34
2022-12-04T09:05:08.699Z,91272.97
2022-12-04T09:07:35.287Z,91268.88
2022-12-04T09:10:02.011Z,91260.38
2022-12-04T09:12:28.711Z,91262.56
2022-12-04T09:14:55.219Z,91264.00
2022-12-04T09:17:21.674Z,91267.41
2022-12-04T09:19:48.129Z,91266.19
2022-12-04T09:22:14.580Z,91274.44
2022-12-04T09:24:41.101Z,91273.09
2022-12-04T09:27:12.919Z,91275.16
2022-12-04T09:29:40.952Z,91266.19
2022-12-04T09:32:07.395Z,91269.69
2022-12-04T09:34:33.945Z,91266.19
2022-12-04T09:37:00.392Z,91266.69
2022-12-04T09:39:26.836Z,91271.75
2022-12-04T09:42:05.123Z,91270.31
2022-12-04T09:44:45.805Z,91265.44
2022-12-04T09:47:23.736Z,91271.75
2022-12-04T09:50:05.601Z,91266.88
2022-12-04T09:52:58.846Z,91264.22
2022-12-04T09:55:41.160Z,91250.16
2022-12-04T09:58:17.791Z,91246.66
2022-12-04T10:00:49.081Z,91250.16
2022-12-04T10:03:21.157Z,91252.25
2022-12-04T10:06:14.421Z,91250.88
2022-12-04T10:08:53.148Z,91239.72
2022-12-04T10:11:39.353Z,91241.16
2022-12-04T10:14:17.899Z,91239.00
2022-12-04T10:17:11.698Z,91239.72
2022-12-04T10:19:59.339Z,91243.94
2022-12-04T10:22:33.291Z,91240.47
2022-12-04T10:25:07.023Z,91244.09
2022-12-04T10:27:41.018Z,91251.13
2022-12-04T10:30:16.871Z,91237.78
2022-12-04T10:32:45.636Z,91240.47
2022-12-04T10:35:27.507Z,91231.47
2022-12-04T10:37:58.719Z,91232.94
2022-12-04T10:40:41.550Z,91238.50
2022-12-04T10:43:29.297Z,91231.47
2022-12-04T10:45:55.804Z,91228.09
2022-12-04T10:48:28.301Z,91233.03
2022-12-04T10:50:54.820Z,91228.81
2022-12-04T10:53:26.697Z,91238.50
2022-12-04T10:55:53.128Z,91230.25
2022-12-04T10:58:20.541Z,91228.09
2022-12-04T11:00:59.544Z,91220.56
2022-12-04T11:03:29.182Z,91214.25
2022-12-04T11:06:02.192Z,91214.25
2022-12-04T11:08:49.016Z,91199.56
2022-12-04T11:11:22.385Z,91198.22
2022-12-04T11:13:48.869Z,91192.66
2022-12-04T11:16:35.100Z,91188.50
2022-12-04T11:19:01.616Z,91186.34
2022-12-04T11:21:32.515Z,91176.63
2022-12-04T11:23:59.295Z,91175.91
2022-12-04T11:26:30.330Z,91163.31
2022-12-04T11:28:58.774Z,91165.47
2022-12-04T11:31:25.748Z,91162.66
2022-12-04T11:33:55.716Z,91160.63
2022-12-04T11:36:27.344Z,91150.91
2022-12-04T11:39:07.854Z,91145.34
2022-12-04T11:41:34.748Z,91145.34
2022-12-04T11:44:01.336Z,91141.19
2022-12-04T11:46:32.370Z,91142.63
2022-12-04T11:48:59.286Z,91138.41
2022-12-04T11:52:11.019Z,91143.34
2022-12-04T11:55:34.300Z,91137.78
2022-12-04T11:58:31.798Z,91123.03
2022-12-04T12:01:28.368Z,91123.09
2022-12-04T12:04:20.866Z,91125.06
2022-12-04T12:07:09.801Z,91118.88
2022-12-04T12:09:43.528Z,91114.03
2022-12-04T12:12:17.472Z,91124.44
2022-12-04T12:15:04.626Z,91116.09
2022-12-04T12:17:46.931Z,91126.50
2022-12-04T12:20:21.380Z,91120.31
2022-12-04T12:23:06.255Z,91121.78
2022-12-04T12:25:51.761Z,91127.25
2022-12-04T12:28:33.763Z,91126.63
2022-12-04T12:31:28.095Z,91120.31
2022-12-04T12:33:59.891Z,91125.19
2022-12-04T12:36:33.561Z,91127.34
2022-12-04T12:39:09.025Z,91123.19
2022-12-04T12:41:41.987Z,91128.78
2022-12-04T12:44:17.992Z,91131.47
2022-12-04T12:46:49.870Z,91117.63
2022-12-04T12:49:26.963Z,91113.50
2022-12-04T12:52:17.332Z,91107.91
2022-12-04T12:55:16.029Z,91101.59
2022-12-04T12:57:47.671Z,91108.53
2022-12-04T13:00:21.759Z,91116.19
2022-12-04T13:03:03.870Z,91112.03
2022-12-04T13:05:38.099Z,91100.88
2022-12-04T13:08:17.054Z,91112.03
2022-12-04T13:10:48.680Z,91112.03
2022-12-04T13:13:23.264Z,91102.34
2022-12-04T13:16:04.902Z,91103.78
2022-12-04T13:18:38.546Z,91095.31
2022-12-04T13:21:07.211Z,91104.50
2022-12-04T13:24:00.045Z,91103.78
2022-12-04T13:26:49.891Z,91093.34
2022-12-04T13:29:35.983Z,91110.81
2022-12-04T13:32:25.595Z,91109.34
2022-12-04T13:34:56.831Z,91105.22
2022-12-04T13:38:14.880Z,91099.66
2022-12-04T13:40:44.834Z,91099.72
2022-12-04T13:43:17.318Z,91102.53
2022-12-04T13:45:49.317Z,91108.09
2022-12-04T13:48:27.646Z,91106.78
2022-12-04T13:51:02.976Z,91113.69
2022-12-04T13:53:31.692Z,91116.47
2022-12-04T13:56:03.175Z,91117.81
2022-12-04T13:58:35.693Z,91120.00
2022-12-04T14:01:24.993Z,91126.31
2022-12-04T14:03:57.327Z,91126.31
2022-12-04T14:06:39.306Z,91124.84
2022-12-04T14:09:19.334Z,91133.31
2022-12-04T14:11:48.339Z,91126.41
2022-12-04T14:14:24.368Z,91131.88
2022-12-04T14:16:51.397Z,91131.88
2022-12-04T14:19:31.966Z,91134.78
2022-12-04T14:21:58.954Z,91140.34
2022-12-04T14:24:25.343Z,91134.78
2022-12-04T14:29:52.044Z,91134.78
2022-12-04T14:32:35.336Z,91134.16
2022-12-04T14:35:02.721Z,91133.31
2022-12-04T14:37:35.978Z,91134.78
2022-12-04T14:40:07.015Z,91137.47
2022-12-04T14:42:36.228Z,91134.78
2022-12-04T14:45:05.731Z,91141.78
2022-12-04T14:47:56.736Z,91145.19
2022-12-04T14:50:51.515Z,91142.50
2022-12-04T14:53:38.283Z,91139.09
2022-12-04T14:56:19.111Z,91143.34
2022-12-04T14:58:45.883Z,91146.13
2022-12-04T15:01:25.336Z,91138.38
2022-12-04T15:03:58.031Z,91140.56
2022-12-04T15:06:26.330Z,91137.56
2022-12-04T15:09:18.495Z,91136.31
2022-12-04T15:12:16.926Z,91134.97
2022-12-04T15:14:45.873Z,91146.13
2022-12-04T15:17:13.783Z,91152.44
2022-12-04T15:19:40.525Z,91150.25
2022-12-04T15:22:27.102Z,91153.06
2022-12-04T15:24:55.320Z,91160.69
2022-12-04T15:27:30.518Z,91162.88
2022-12-04T15:30:01.338Z,91165.75
2022-12-04T15:32:31.202Z,91158.72
2022-12-04T15:35:05.893Z,91158.72
2022-12-04T15:37:32.936Z,91164.31
2022-12-04T15:40:00.247Z,91166.59
2022-12-04T15:42:30.448Z,91167.84
2022-12-04T15:45:02.047Z,91167.22
2022-12-04T15:47:57.191Z,91176.91
2022-12-04T15:50:29.314Z,91167.22
2022-12-04T15:53:00.987Z,91158.94
2022-12-04T15:55:33.149Z,91168.75
2022-12-04T15:58:03.346Z,91175.69
2022-12-04T16:00:36.791Z,91175.69
2022-12-04T16:03:20.773Z,91182.69
2022-12-04T16:05:47.543Z,91191.06
2022-12-04T16:08:32.286Z,91195.31
2022-12-04T16:11:06.609Z,91190.97
2022-12-04T16:13:38.514Z,91188.81
2022-12-04T16:16:08.072Z,91193.13
2022-12-04T16:18:34.960Z,91199.44
2022-12-04T16:21:01.629Z,91195.31
2022-12-04T16:23:28.192Z,91200.81
2022-12-04T16:25:54.730Z,91206.38
2022-12-04T16:28:21.331Z,91209.19
2022-12-04T16:30:49.950Z,91204.94
2022-12-04T16:33:16.535Z,91206.28
2022-12-04T16:35:43.004Z,91218.88
2022-12-04T16:38:15.801Z,91214.75
2022-12-04T16:40:44.018Z,91217.66
2022-12-04T16:43:15.563Z,91223.22
2022-12-04T16:45:52.075Z,91214.03
2022-12-04T16:48:18.615Z,91210.59
2022-12-04T16:50:46.060Z,91227.25
2022-12-04T16:53:16.810Z,91225.41
2022-12-04T16:55:48.775Z,91218.97
2022-12-04T16:58:16.310Z,91221.66
2022-12-04T17:00:44.785Z,91234.28
2022-12-04T17:03:30.203Z,91241.31
2022-12-04T17:05:57.396Z,91231.59
2022-12-04T17:08:24.421Z,91241.31
2022-12-04T17:10:52.044Z,91240.06
2022-12-04T17:13:20.458Z,91242.66
2022-12-04T17:15:47.126Z,91230.03
2022-12-04T17:18:20.582Z,91238.50
2022-12-04T17:20:47.728Z,91235.63
2022-12-04T17:23:14.267Z,91244.09
2022-12-04T17:25:40.895Z,91235.84
2022-12-04T17:28:07.828Z,91239.25
2022-12-04T17:30:36.182Z,91237.19
2022-12-04T17:33:04.039Z,91244.09
2022-12-04T17:35:30.746Z,91244.31
2022-12-04T17:38:00.753Z,91247.22
2022-12-04T17:40:32.080Z,91248.44
2022-12-04T17:42:59.331Z,91240.16
2022-12-04T17:45:25.812Z,91244.31
2022-12-04T17:47:52.278Z,91245.63
2022-12-04T17:50:18.734Z,91247.72
2022-12-04T17:52:45.219Z,91255.38
2022-12-04T17:55:11.741Z,91252.56
2022-12-04T17:57:38.232Z,91260.94
2022-12-04T18:00:05.467Z,91252.69
2022-12-04T18:02:31.964Z,91254.75
2022-12-04T18:04:58.700Z,91266.63
2022-12-04T18:07:25.456Z,91263.84
2022-12-04T18:09:51.909Z,91267.38
2022-12-04T18:12:18.551Z,91273.66
2022-12-04T18:14:44.987Z,91284.72
2022-12-04T18:17:11.435Z,91270.75
2022-12-04T18:19:37.960Z,91282.03
2022-12-04T18:22:04.422Z,91280.59
2022-12-04T18:24:30.917Z,91300.13
2022-12-04T18:26:57.352Z,91298.78
2022-12-04T18:29:25.544Z,91314.19
2022-12-04T18:31:52.407Z,91310.03
2022-12-04T18:34:19.433Z,91301.66
2022-12-04T18:36:45.978Z,91302.28
2022-12-04T18:39:15.305Z,91312.84
2022-12-04T18:41:41.901Z,91305.19
2022-12-04T18:44:08.469Z,91310.66
2022-12-04T18:46:35.597Z,91303.03
2022-12-04T18:49:02.444Z,91309.94
2022-12-04T18:51:39.343Z,91314.81
2022-12-04T18:54:18.474Z,91311.41
2022-12-04T18:56:45.638Z,91317.69
2022-12-04T18:59:15.475Z,91328.25
2022-12-04T19:01:42.910Z,91320.47
2022-12-04T19:04:10.044Z,91322.69
2022-12-04T19:06:42.323Z,91322.69
2022-12-04T19:09:11.727Z,91320.59
2022-12-04T19:11:39.487Z,91315.63
2022-12-04T19:14:14.780Z,91323.91
2022-12-04T19:16:44.876Z,91328.03
2022-12-04T19:19:13.167Z,91314.09
2022-12-04T19:21:39.650Z,91316.88
2022-12-04T19:24:06.476Z,91314.19
2022-12-04T19:26:34.289Z,91318.31
2022-12-04T19:29:02.371Z,91322.56
2022-12-04T19:31:32.881Z,91322.47
2022-12-04T19:34:00.011Z,91330.84
2022-12-04T19:36:28.784Z,91330.84
2022-12-04T19:38:57.319Z,91334.34
2022-12-04T19:41:26.046Z,91339.19
2022-12-04T19:43:56.366Z,91358.84
2022-12-04T19:46:28.009Z,91351.81
2022-12-04T19:48:58.063Z,91362.97
2022-12-04T19:51:25.515Z,91364.44
2022-12-04T19:53:53.210Z,91365.75
2022-12-04T19:56:24.426Z,91363.69
2022-12-04T19:58:52.453Z,91364.44
2022-12-04T20:01:24.869Z,91362.97
2022-12-04T20:03:51.338Z,91372.81
2022-12-04T20:06:20.894Z,91369.28
2022-12-04T20:08:52.683Z,91365.66
2022-12-04T20:11:19.541Z,91367.13
2022-12-04T20:13:47.426Z,91361.63
2022-12-04T20:16:16.910Z,91375.50
2022-12-04T20:18:44.186Z,91361.53
2022-12-04T20:21:12.064Z,91375.59
2022-12-04T20:23:49.358Z,91369.28
2022-12-04T20:26:19.500Z,91370.00
2022-12-04T20:28:46.035Z,91358.84
2022-12-04T20:31:16.499Z,91369.91
2022-12-04T20:33:44.563Z,91370.72
2022-12-04T20:36:12.230Z,91382.63
2022-12-04T20:38:39.914Z,91379.81
2022-12-04T20:41:09.120Z,91384.09
2022-12-04T20:43:36.358Z,91384.09
2022-12-04T20:46:17.232Z,91395.25
2022-12-04T20:48:48.407Z,91399.25
2022-12-04T20:51:17.409Z,91395.13
2022-12-04T20:53:45.020Z,91393.06
2022-12-04T20:56:12.216Z,91407.84
2022-12-04T20:58:39.952Z,91414.78
2022-12-04T21:01:09.108Z,91406.41
2022-12-04T21:03:35.682Z,91412.00
2022-12-04T21:06:04.040Z,91413.31
2022-12-04T21:08:49.403Z,91422.31
2022-12-04T21:11:15.840Z,91428.53
2022-12-04T21:14:00.619Z,91432.84
2022-12-04T21:16:27.231Z,91432.84
2022-12-04T21:18:53.759Z,91435.53
2022-12-04T21:21:20.327Z,91443.91
2022-12-04T21:23:46.990Z,91441.84
2022-12-04T21:26:14.396Z,91453.75
2022-12-04T21:28:40.734Z,91449.59
2022-12-04T21:31:07.287Z,91457.88
2022-12-04T21:33:34.383Z,91464.81
2022-12-04T21:36:06.115Z,91467.59
2022-12-04T21:38:34.256Z,91461.38
2022-12-04T21:41:02.039Z,91455.06
2022-12-04T21:43:30.104Z,91448.69
2022-12-04T21:46:09.399Z,91441.00
2022-12-04T21:48:36.411Z,91443.78
2022-12-04T21:51:26.831Z,91435.75
2022-12-04T21:53:58.318Z,91444.47
2022-12-04T21:56:25.321Z,91441.97
2022-12-04T21:58:52.346Z,91440.97
2022-12-04T22:01:21.069Z,91438.50
2022-12-04T22:03:47.931Z,91436.75
2022-12-04T22:06:14.576Z,91444.72
2022-12-04T22:08:41.857Z,91440.59
2022-12-04T22:11:10.688Z,91441.50
2022-12-04T22:13:37.994Z,91441.03
2022-12-04T22:16:10.094Z,91448.28
2022-12-04T22:18:36.705Z,91451.91
2022-12-04T22:21:08.320Z,91449.72
2022-12-04T22:23:35.468Z,91463.81
2022-12-04T22:26:14.033Z,91449.72
2022-12-04T22:28:41.704Z,91456.25
2022-12-04T22:31:11.565Z,91459.97
2022-12-04T22:33:38.912Z,91465.75
2022-12-04T22:36:07.987Z,91450.56
2022-12-04T22:38:42.466Z,91457.59
2022-12-04T22:41:20.847Z,91460.50
2022-12-04T22:43:47.676Z,91456.34
2022-12-04T22:46:14.886Z,91452.13
2022-12-04T22:48:42.608Z,91455.63
2022-12-04T22:51:18.659Z,91445.59
2022-12-04T22:53:50.815Z,91448.88
2022-12-04T22:56:36.772Z,91454.41
2022-12-04T22:59:03.224Z,91448.69
2022-12-04T23:01:32.132Z,91454.28
2022-12-04T23:03:59.201Z,91452.81
2022-12-04T23:06:28.269Z,91447.25
2022-12-04T23:09:04.824Z,91471.75
2022-12-04T23:11:31.349Z,91450.13
2022-12-04T23:14:02.230Z,91452.94
2022-12-04T23:16:31.074Z,91461.31
2022-12-04T23:18:57.856Z,91455.72
2022-12-04T23:21:24.572Z,91450.13
2022-12-04T23:23:53.104Z,91451.50
2022-12-04T23:26:23.250Z,91454.28
2022-12-04T23:28:49.819Z,91450.13
2022-12-04T23:31:17.014Z,91443.81
2022-12-04T23:33:43.769Z,91454.28
2022-12-04T23:36:12.066Z,91462.66
2022-12-04T23:38:40.141Z,91459.16
2022-12-04T23:41:12.367Z,91459.88
2022-12-04T23:43:40.307Z,91458.41
2022-12-04T23:46:11.190Z,91461.09
2022-12-04T23:48:39.067Z,91465.25
2022-12-04T23:51:05.483Z,91479.31
2022-12-04T23:53:31.922Z,91477.84
2022-12-04T23:56:00.823Z,91473.63
2022-12-04T23:58:27.288Z,91470.09
